Terminal Aerodrome Forecast
Issued by NWS

Home | Current Version | Previous Version | Text Only | Print | Product List | Glossary On
Versions: 1 2 3 4 5 6 7 8 9 10 11 12 13 14
000
FTUS43 KAPX 031736
TAFTVC
TAF
KTVC 031736Z 0318/0418 18010G17KT P6SM BKN120
     FM040100 20008KT P6SM BKN120 WS020/21036KT
     FM040500 23006KT 4SM -SHRA OVC050 WS020/23040KT
     FM040900 23005KT 4SM -SHRA BR OVC022
     FM041400 33006KT P6SM OVC100=

USA.gov is the U.S. government's official web portal to all federal, state and local government web resources and services.